Airfield :
LOGIN :

Register | Disclaimer

   EN    FR    IT 

 










Legend :    VFR   Marginal VFR   IFR   Intensive IFR   Very Intensive IFR
Visi :
Ceiling :
>= 8 km
>= 3000ft
5 to 8 km
1000 to 3000 ft
1500m to 5 km
500 to 1000 ft
800 to 1500m
200 to 500 ft
< 800m
< 200 ft
Symbols :   Thunderstorms  Fog  Heavy snow  Heavy precipitations  Wind > 20 kt
SIGMETs :     Misc.  Thunderstorms  Icing  Turbulence  Mountain Waves  Volcanic Ashes







- Airport Elevation : 659 ft
- IATA code : LGG


EBLG - Liège

CURRENT METAR :
  • 180650Z 32010KT 6000 -RA SCT005 BKN007 05/04 Q1018 TEMPO 2500 RADZ BKN004

EXPIRED METARs :
  • 180620Z 32011KT 280V340 3500 -RA SCT004 BKN006 05/03 Q1018 TEMPO 1500 RADZ BKN003
  • 180550Z 32009KT 6000 SCT005 BKN007 05/03 Q1017 TEMPO 1500 RADZ BKN003
  • 180520Z 32009KT 3500 BR SCT003 BKN004 05/03 Q1017 TEMPO 1500 RADZ BKN003
  • 180450Z 31007KT 270V350 3500 -SHRA SCT002 BKN006 05/03 Q1017 TEMPO 2000 RADZ BKN005
  • 180420Z 27009KT 8000 -SHRA SCT002 BKN006 04/02 Q1017 NOSIG

TAF TAF EBLG
Valid from the 18 at 06:00 until the 19 at 12:00 UTC


180517Z 1806/1912 32009KT 8000 SCT008 BKN012
PROB40
TEMPO 1806/1810 4000 SHRA BKN007
BECMG 1820/1822 2500 BR
PROB40
TEMPO 1823/1909 0500 FG BKN001
No reported NOTAMs for that airfield.
2 SIGMETs reported for the Brussels FIR (EBBU) :
 
Severe turbulence
EBBU SIGMET 02 VALID 180700/181100 EBBR
EBBU BRUSSELS FIR SEV TURB OBS E OF E004 FL250/400 MOV E NC=
Severe turbulence
EBBU SIGMET 01 VALID 180300/180700 EBBR
EBBU BRUSSELS FIR SEV TURB FCST ENTIRE FIR FL250/400 MOV E NC=



MET'MAP, your aeronautical weather chart ! - Copyright ORBIFLY December 2007 - Disclaimer

ORBIFLY MET'MAP TEAM :

Programming & Development : Alexandra Zaïnal
Concept & Development : Baudouin d'Aumeries
Co-Development & Prog : Marc-Olivier Méhu
Technical & hardware support : Manuel Goepfert

Contact : metmap@orbifly.com




SOURCES & CREDITS :

   NOAA